Time;durP1;ratioP1;P1;durP2;ratioP2;P2;SDS_P1;SDS_P2;PMS_P1;PMS_P2;Temp;Humidity;BMP_temperature;BMP_pressure;BME280_temperature;BME280_humidity;BME280_pressure;Samples;Min_cycle;Max_cycle;Signal;HPM_P1;HPM_P2
2024/01/24 00:00:19;;;;;;;2.92;1.98;;;13.10;99.90;;;;;;3121041;28;20038;-70
2024/01/24 00:01:49;;;;;;;1.67;1.20;;;13.10;99.90;;;;;;3122287;28;20025;-71
2024/01/24 00:03:21;;;;;;;1.70;1.35;;;13.10;99.90;;;;;;3119792;28;20029;-72
2024/01/24 00:04:52;;;;;;;4.75;1.73;;;13.10;99.90;;;;;;3107016;28;20292;-70
2024/01/24 00:06:22;;;;;;;1.85;1.17;;;13.20;99.90;;;;;;3125316;28;20028;-71
2024/01/24 00:07:53;;;;;;;2.50;1.20;;;13.10;99.90;;;;;;3141076;28;20017;-71
2024/01/24 00:09:24;;;;;;;4.72;1.58;;;13.10;99.90;;;;;;3095469;28;20305;-71
2024/01/24 00:10:55;;;;;;;3.63;1.45;;;13.20;99.90;;;;;;3108364;28;20272;-70
2024/01/24 00:12:26;;;;;;;7.85;2.17;;;13.20;99.90;;;;;;3099694;28;20038;-71
2024/01/24 00:13:57;;;;;;;0.80;0.80;;;13.30;99.90;;;;;;3107757;28;20033;-71
2024/01/24 00:15:28;;;;;;;3.63;1.23;;;13.30;99.90;;;;;;3110924;28;20532;-72
2024/01/24 00:16:58;;;;;;;1.60;1.50;;;13.30;99.90;;;;;;3124818;28;20018;-71
2024/01/24 00:18:29;;;;;;;5.07;2.22;;;13.30;99.90;;;;;;3135050;28;20394;-71
2024/01/24 00:20:01;;;;;;;1.05;0.88;;;13.40;99.90;;;;;;3116375;28;20085;-70
2024/01/24 00:21:32;;;;;;;2.47;1.65;;;13.40;99.90;;;;;;3116686;28;20250;-70
2024/01/24 00:23:03;;;;;;;2.25;1.50;;;13.50;99.90;;;;;;3116864;28;20022;-71
2024/01/24 00:24:34;;;;;;;3.60;1.27;;;13.40;99.90;;;;;;3120978;28;20029;-71
2024/01/24 00:26:05;;;;;;;0.85;0.82;;;13.50;99.90;;;;;;3128249;28;20052;-70
2024/01/24 00:27:35;;;;;;;0.75;0.75;;;13.50;99.90;;;;;;3116830;28;20042;-71
2024/01/24 00:29:06;;;;;;;1.17;1.08;;;13.50;99.90;;;;;;3114889;28;20036;-70
2024/01/24 00:30:37;;;;;;;2.13;1.02;;;13.50;99.90;;;;;;3116692;28;20311;-71
2024/01/24 00:32:08;;;;;;;1.48;0.63;;;13.50;99.90;;;;;;3116132;28;20331;-70
2024/01/24 00:33:38;;;;;;;5.97;1.65;;;13.50;99.90;;;;;;3095150;28;20399;-71
2024/01/24 00:35:09;;;;;;;2.50;1.00;;;13.50;99.90;;;;;;3112017;28;20033;-70
2024/01/24 00:36:40;;;;;;;0.82;0.70;;;13.60;99.90;;;;;;3116660;28;20080;-70
2024/01/24 00:38:11;;;;;;;3.50;1.75;;;13.70;99.90;;;;;;3116774;28;20025;-71
2024/01/24 00:39:41;;;;;;;1.70;1.17;;;13.60;99.90;;;;;;3116405;28;20420;-71
2024/01/24 00:41:12;;;;;;;5.88;1.15;;;13.60;99.90;;;;;;3115660;28;20018;-71
2024/01/24 00:42:43;;;;;;;6.38;1.13;;;13.60;99.90;;;;;;3124491;28;20025;-72
2024/01/24 00:44:14;;;;;;;1.33;1.23;;;13.60;99.90;;;;;;3114968;28;20327;-71
2024/01/24 00:45:45;;;;;;;2.00;0.88;;;13.60;99.90;;;;;;3112226;28;20065;-71
2024/01/24 00:47:17;;;;;;;0.68;0.60;;;13.60;99.90;;;;;;3120442;28;20127;-71
2024/01/24 00:48:48;;;;;;;1.30;0.93;;;13.60;99.90;;;;;;3132398;28;20069;-72
2024/01/24 00:50:19;;;;;;;1.40;1.20;;;13.60;99.90;;;;;;3115879;28;20077;-71
2024/01/24 00:51:50;;;;;;;0.40;0.40;;;13.50;99.90;;;;;;3128475;28;20033;-71
2024/01/24 00:53:21;;;;;;;3.58;0.50;;;13.60;99.90;;;;;;3114066;28;20026;-72
2024/01/24 00:54:52;;;;;;;3.90;1.85;;;13.60;99.90;;;;;;3112346;28;20060;-71
2024/01/24 00:56:23;;;;;;;1.35;1.00;;;13.50;99.90;;;;;;3112380;28;20026;-71
2024/01/24 00:57:54;;;;;;;3.17;0.50;;;13.70;99.90;;;;;;3124176;28;20037;-71
2024/01/24 00:59:26;;;;;;;2.10;1.15;;;13.60;99.90;;;;;;3108653;28;20059;-73
2024/01/24 01:00:58;;;;;;;1.20;0.63;;;13.70;99.90;;;;;;3124855;28;20036;-72
2024/01/24 01:02:29;;;;;;;2.83;1.25;;;13.70;99.90;;;;;;3139784;28;20028;-71
2024/01/24 01:04:00;;;;;;;2.95;0.90;;;13.70;99.90;;;;;;3119674;28;20096;-72
2024/01/24 01:05:31;;;;;;;2.83;1.35;;;13.60;99.90;;;;;;3117821;28;20022;-71
2024/01/24 01:07:01;;;;;;;3.53;0.60;;;13.60;99.90;;;;;;3108537;28;20021;-72
2024/01/24 01:08:32;;;;;;;1.83;1.63;;;13.60;99.90;;;;;;3089191;28;20385;-71
2024/01/24 01:10:03;;;;;;;3.08;1.20;;;13.60;99.90;;;;;;3108166;28;20034;-71
2024/01/24 01:11:34;;;;;;;1.30;0.50;;;13.70;99.90;;;;;;3127145;28;20018;-71
2024/01/24 01:13:05;;;;;;;3.05;1.35;;;13.70;99.90;;;;;;3103834;28;20034;-72
2024/01/24 01:14:37;;;;;;;1.67;1.30;;;13.70;99.90;;;;;;3111677;28;20034;-72
2024/01/24 01:16:08;;;;;;;0.90;0.88;;;13.70;99.90;;;;;;3099807;28;20057;-72
2024/01/24 01:17:39;;;;;;;2.05;0.88;;;12.90;99.90;;;;;;3103555;28;20026;-72
2024/01/24 01:19:10;;;;;;;0.85;0.73;;;13.60;99.90;;;;;;3110974;28;20018;-72
2024/01/24 01:20:41;;;;;;;1.65;0.85;;;13.60;99.90;;;;;;3103916;28;20065;-71
2024/01/24 01:22:12;;;;;;;3.85;1.35;;;13.60;99.90;;;;;;3124757;28;20307;-72
2024/01/24 01:23:43;;;;;;;4.82;1.50;;;13.70;99.90;;;;;;3115293;28;20036;-71
2024/01/24 01:25:14;;;;;;;3.20;1.20;;;13.70;99.90;;;;;;3097192;28;20076;-71
2024/01/24 01:26:44;;;;;;;1.20;0.98;;;13.60;99.90;;;;;;3099788;28;20308;-71
2024/01/24 01:28:15;;;;;;;3.78;0.88;;;13.60;99.90;;;;;;3111297;28;23412;-72
2024/01/24 01:29:46;;;;;;;0.95;0.95;;;13.60;99.90;;;;;;3099563;28;20121;-71
2024/01/24 01:31:17;;;;;;;3.17;1.20;;;13.70;99.90;;;;;;3099916;28;20382;-71
2024/01/24 01:32:47;;;;;;;2.45;1.15;;;13.60;99.90;;;;;;3114581;28;20028;-72
2024/01/24 01:34:18;;;;;;;1.65;0.55;;;13.60;99.90;;;;;;3116209;28;20316;-72
2024/01/24 01:35:49;;;;;;;0.43;0.43;;;13.60;99.90;;;;;;3117155;28;20367;-71
2024/01/24 01:37:21;;;;;;;4.30;1.17;;;13.60;99.90;;;;;;3118122;28;20030;-71
2024/01/24 01:38:52;;;;;;;0.88;0.75;;;14.30;99.90;;;;;;3117572;28;20053;-71
2024/01/24 01:40:23;;;;;;;2.65;0.80;;;13.60;99.90;;;;;;3117562;28;20025;-71
2024/01/24 01:41:54;;;;;;;0.80;0.60;;;13.60;99.90;;;;;;3126998;28;20017;-72
2024/01/24 01:43:24;;;;;;;1.42;0.95;;;13.50;99.90;;;;;;3142555;28;20114;-72
2024/01/24 01:44:55;;;;;;;0.60;0.60;;;13.50;99.90;;;;;;3124401;28;20227;-71
2024/01/24 01:46:27;;;;;;;0.60;0.60;;;13.40;99.90;;;;;;3121349;28;20030;-71
2024/01/24 01:47:58;;;;;;;0.60;0.60;;;13.30;99.90;;;;;;3120744;28;20033;-76
2024/01/24 01:49:29;;;;;;;1.20;1.15;;;13.30;99.90;;;;;;3126246;28;20068;-72
2024/01/24 01:51:01;;;;;;;0.57;0.47;;;13.20;99.90;;;;;;3105888;28;20026;-72
2024/01/24 01:52:32;;;;;;;4.75;1.05;;;13.30;99.90;;;;;;3086918;28;20030;-71
2024/01/24 01:54:04;;;;;;;0.70;0.70;;;13.10;99.90;;;;;;3105955;28;20057;-71
2024/01/24 01:55:36;;;;;;;2.92;0.73;;;13.10;99.90;;;;;;3105793;28;20343;-71
2024/01/24 01:57:08;;;;;;;2.70;1.27;;;13.10;99.90;;;;;;3114184;28;20068;-73
2024/01/24 01:58:41;;;;;;;0.80;0.70;;;13.10;99.90;;;;;;3100429;28;20030;-72
2024/01/24 02:00:20;;;;;;;1.17;0.90;;;13.20;99.90;;;;;;3105582;28;20025;-71
2024/01/24 02:01:54;;;;;;;1.67;0.57;;;13.10;99.90;;;;;;3115582;28;20291;-71
2024/01/24 02:03:25;;;;;;;1.60;0.75;;;13.00;99.90;;;;;;3118167;28;20390;-72
2024/01/24 02:04:56;;;;;;;1.23;1.15;;;13.00;99.90;;;;;;3128244;28;20040;-71
2024/01/24 02:06:28;;;;;;;3.60;1.63;;;12.90;99.90;;;;;;3119561;28;20033;-71
2024/01/24 02:07:59;;;;;;;0.60;0.60;;;12.90;99.90;;;;;;3104841;28;20030;-71
2024/01/24 02:09:30;;;;;;;0.82;0.82;;;12.80;99.90;;;;;;3102368;28;20045;-71
2024/01/24 02:11:02;;;;;;;2.67;0.93;;;12.70;99.90;;;;;;3105806;28;20026;-71
2024/01/24 02:12:33;;;;;;;2.50;0.90;;;12.60;99.90;;;;;;3101745;28;20050;-71
2024/01/24 02:14:03;;;;;;;1.90;0.93;;;12.60;99.90;;;;;;3121022;28;20025;-71
2024/01/24 02:15:34;;;;;;;0.90;0.90;;;12.50;99.90;;;;;;3121825;28;20041;-72
2024/01/24 02:17:05;;;;;;;0.85;0.85;;;12.50;99.90;;;;;;3101642;28;20031;-71
2024/01/24 02:18:37;;;;;;;0.80;0.80;;;12.50;99.90;;;;;;3113191;28;20022;-71
2024/01/24 02:20:09;;;;;;;3.65;1.33;;;12.40;99.90;;;;;;3109802;28;20052;-71
2024/01/24 02:21:40;;;;;;;0.95;0.93;;;12.40;99.90;;;;;;3122100;28;20022;-71
2024/01/24 02:23:12;;;;;;;1.48;1.38;;;12.40;99.90;;;;;;3118295;28;20029;-72
2024/01/24 02:24:43;;;;;;;0.75;0.75;;;12.30;99.90;;;;;;3117851;28;20096;-71
2024/01/24 02:26:15;;;;;;;1.92;1.83;;;12.30;99.90;;;;;;3117852;28;20029;-71
2024/01/24 02:27:45;;;;;;;0.70;0.60;;;12.30;99.90;;;;;;3105444;28;20038;-71
2024/01/24 02:29:16;;;;;;;4.80;1.08;;;12.30;99.90;;;;;;3113589;28;20053;-72
2024/01/24 02:30:47;;;;;;;1.48;1.23;;;12.30;99.90;;;;;;3129823;28;20033;-72
2024/01/24 02:32:18;;;;;;;0.77;0.75;;;12.20;99.90;;;;;;3123585;28;20050;-72
2024/01/24 02:33:48;;;;;;;0.68;0.68;;;12.20;99.90;;;;;;3117331;28;20116;-71
2024/01/24 02:35:19;;;;;;;1.67;1.13;;;12.20;99.90;;;;;;3110986;28;20109;-71
2024/01/24 02:36:50;;;;;;;1.10;1.00;;;12.20;99.90;;;;;;3129755;28;20025;-71
2024/01/24 02:38:21;;;;;;;0.75;0.60;;;12.20;99.90;;;;;;3120316;28;20299;-71
2024/01/24 02:39:52;;;;;;;0.70;0.68;;;12.20;99.90;;;;;;3108755;28;20022;-72
2024/01/24 02:41:23;;;;;;;0.90;0.90;;;12.20;99.90;;;;;;3126579;28;20028;-72
2024/01/24 02:42:54;;;;;;;0.98;0.95;;;12.20;99.90;;;;;;3137005;28;20334;-72
2024/01/24 02:44:25;;;;;;;0.73;0.60;;;12.10;99.90;;;;;;3122137;28;20104;-71
2024/01/24 02:45:55;;;;;;;3.08;0.95;;;12.10;99.90;;;;;;3117318;28;20045;-72
2024/01/24 02:47:26;;;;;;;1.75;0.98;;;12.10;99.90;;;;;;3124759;28;20037;-71
2024/01/24 02:48:57;;;;;;;4.07;1.10;;;12.10;99.90;;;;;;3104136;28;20032;-73
2024/01/24 02:50:28;;;;;;;1.27;0.77;;;12.10;99.90;;;;;;3101556;28;20034;-71
2024/01/24 02:52:02;;;;;;;0.52;0.52;;;12.10;99.90;;;;;;3106067;28;20023;-71
2024/01/24 02:53:32;;;;;;;0.82;0.63;;;12.10;99.90;;;;;;3092961;28;20034;-71
2024/01/24 02:55:03;;;;;;;2.33;0.70;;;12.10;99.90;;;;;;3101330;28;20068;-73
2024/01/24 02:56:35;;;;;;;0.40;0.40;;;12.10;99.90;;;;;;3111703;28;20037;-72
2024/01/24 02:58:06;;;;;;;0.60;0.60;;;12.10;99.90;;;;;;3116386;28;20026;-73
2024/01/24 02:59:37;;;;;;;1.02;0.82;;;12.10;99.90;;;;;;3118291;28;20434;-72
2024/01/24 03:01:08;;;;;;;0.93;0.85;;;12.10;99.90;;;;;;3105257;28;20030;-72
2024/01/24 03:02:39;;;;;;;1.10;1.00;;;12.10;99.90;;;;;;3113367;28;20096;-72
2024/01/24 03:04:10;;;;;;;0.82;0.70;;;12.10;99.90;;;;;;3125298;28;20017;-71
2024/01/24 03:05:41;;;;;;;1.17;0.50;;;12.10;99.90;;;;;;3109886;28;20041;-72
2024/01/24 03:07:11;;;;;;;0.63;0.63;;;12.00;99.90;;;;;;3113481;28;20228;-71
2024/01/24 03:08:49;;;;;;;0.93;0.90;;;12.00;99.90;;;;;;3128203;28;20219;-72
2024/01/24 03:10:21;;;;;;;0.93;0.93;;;12.00;99.90;;;;;;3117249;28;20029;-72
2024/01/24 03:11:51;;;;;;;0.55;0.55;;;12.00;99.90;;;;;;3113144;28;20026;-71
2024/01/24 03:13:22;;;;;;;1.40;0.55;;;12.00;99.90;;;;;;3112972;28;20303;-72
2024/01/24 03:14:53;;;;;;;0.50;0.40;;;12.00;99.90;;;;;;3100726;28;20042;-72
2024/01/24 03:16:24;;;;;;;0.93;0.93;;;12.00;99.90;;;;;;3112928;28;20248;-72
2024/01/24 03:17:55;;;;;;;0.82;0.60;;;12.00;99.90;;;;;;3112857;28;20254;-71
2024/01/24 03:19:27;;;;;;;0.40;0.40;;;12.00;99.90;;;;;;3112224;28;20046;-72
2024/01/24 03:20:59;;;;;;;0.88;0.88;;;12.00;99.90;;;;;;3122837;28;20021;-71
2024/01/24 03:22:29;;;;;;;0.75;0.75;;;12.00;99.90;;;;;;3112791;28;20017;-71
2024/01/24 03:24:00;;;;;;;0.30;0.30;;;12.00;99.90;;;;;;3124922;28;20041;-72
2024/01/24 03:25:31;;;;;;;0.47;0.47;;;12.10;99.90;;;;;;3119979;28;20022;-71
2024/01/24 03:27:02;;;;;;;0.70;0.70;;;12.10;99.90;;;;;;3101089;28;20026;-73
2024/01/24 03:28:33;;;;;;;1.58;0.57;;;12.10;99.90;;;;;;3107231;28;20028;-72
2024/01/24 03:30:04;;;;;;;2.00;0.25;;;12.10;99.90;;;;;;3113021;28;20034;-71
2024/01/24 03:31:35;;;;;;;0.10;0.10;;;12.20;99.90;;;;;;3113178;28;20021;-72
2024/01/24 03:33:06;;;;;;;0.35;0.35;;;12.20;99.90;;;;;;3116460;28;20252;-72
2024/01/24 03:34:37;;;;;;;0.20;0.20;;;12.20;99.90;;;;;;3116248;28;20053;-72
2024/01/24 03:36:08;;;;;;;0.47;0.40;;;12.30;99.90;;;;;;3131023;28;20080;-73
2024/01/24 03:37:38;;;;;;;0.13;0.13;;;12.20;99.90;;;;;;3132205;28;20033;-72
2024/01/24 03:39:10;;;;;;;0.20;0.20;;;12.20;99.90;;;;;;3118162;28;20029;-71
2024/01/24 03:40:42;;;;;;;1.85;0.28;;;12.20;99.90;;;;;;3127947;28;20714;-73
2024/01/24 03:42:13;;;;;;;0.40;0.35;;;12.30;99.90;;;;;;3120517;28;20303;-73
2024/01/24 03:43:44;;;;;;;0.28;0.17;;;12.30;99.90;;;;;;3116032;28;20091;-70
2024/01/24 03:45:15;;;;;;;0.52;0.38;;;12.30;99.90;;;;;;3103496;28;20030;-71
2024/01/24 03:46:46;;;;;;;0.47;0.38;;;12.40;99.90;;;;;;3111964;28;20017;-73
2024/01/24 03:48:16;;;;;;;0.32;0.32;;;12.30;99.90;;;;;;3117526;28;20076;-72
2024/01/24 03:49:47;;;;;;;2.53;0.47;;;12.40;99.90;;;;;;3120324;28;20037;-71
2024/01/24 03:51:18;;;;;;;0.47;0.47;;;12.40;99.90;;;;;;3116562;28;20026;-71
2024/01/24 03:52:49;;;;;;;0.38;0.35;;;12.30;99.90;;;;;;3103852;28;20320;-72
2024/01/24 03:54:19;;;;;;;0.73;0.30;;;12.30;99.90;;;;;;3111938;28;20037;-72
2024/01/24 03:55:51;;;;;;;3.90;0.68;;;12.30;99.90;;;;;;3108452;28;20026;-71
2024/01/24 03:57:23;;;;;;;1.02;1.02;;;12.30;99.90;;;;;;3103886;28;20414;-72
2024/01/24 03:58:53;;;;;;;0.55;0.17;;;12.30;99.90;;;;;;3107237;28;20080;-71
2024/01/24 04:00:24;;;;;;;0.55;0.40;;;12.30;99.90;;;;;;3087675;28;20046;-72
2024/01/24 04:01:55;;;;;;;0.75;0.60;;;12.30;99.90;;;;;;3103538;28;20013;-71
2024/01/24 04:03:26;;;;;;;0.40;0.38;;;12.30;99.90;;;;;;3111544;28;20026;-70
2024/01/24 04:04:56;;;;;;;0.57;0.52;;;12.30;99.90;;;;;;3113970;28;20034;-71
2024/01/24 04:06:27;;;;;;;0.28;0.28;;;12.30;99.90;;;;;;3123594;28;20037;-72
2024/01/24 04:07:58;;;;;;;1.45;0.82;;;12.20;99.90;;;;;;3112440;28;20423;-72
2024/01/24 04:09:29;;;;;;;0.52;0.40;;;12.20;99.90;;;;;;3127034;28;20120;-71
2024/01/24 04:11:00;;;;;;;0.90;0.60;;;12.20;99.90;;;;;;3115504;28;20350;-70
2024/01/24 04:12:30;;;;;;;5.10;1.50;;;12.30;99.90;;;;;;3105302;28;20014;-71
2024/01/24 04:14:04;;;;;;;1.65;1.08;;;12.30;99.90;;;;;;3120411;28;20080;-72
2024/01/24 04:15:35;;;;;;;3.72;1.80;;;12.40;99.90;;;;;;3106092;28;20030;-71
2024/01/24 04:17:06;;;;;;;2.10;1.67;;;12.30;99.90;;;;;;3103222;28;20223;-70
2024/01/24 04:18:37;;;;;;;2.85;1.50;;;12.40;99.90;;;;;;3115888;28;20041;-72
2024/01/24 04:20:09;;;;;;;5.15;1.67;;;12.30;99.90;;;;;;3120236;28;20096;-71
2024/01/24 04:21:42;;;;;;;2.35;1.27;;;12.30;99.90;;;;;;3102651;28;20065;-71
2024/01/24 04:23:12;;;;;;;2.67;0.73;;;12.40;99.90;;;;;;3108117;28;20049;-71
2024/01/24 04:24:44;;;;;;;1.13;1.00;;;12.20;99.90;;;;;;3111532;28;20026;-71
2024/01/24 04:26:16;;;;;;;3.83;1.80;;;12.30;99.90;;;;;;3112685;28;20315;-71
2024/01/24 04:27:46;;;;;;;7.20;2.10;;;12.50;99.90;;;;;;3116735;28;20030;-71
2024/01/24 04:29:18;;;;;;;3.95;1.30;;;12.30;99.90;;;;;;3116870;28;20331;-72
2024/01/24 04:30:48;;;;;;;2.00;1.80;;;12.30;99.90;;;;;;3129245;28;20087;-71
2024/01/24 04:32:19;;;;;;;2.63;1.25;;;12.30;99.90;;;;;;3133334;28;20017;-70
2024/01/24 04:33:50;;;;;;;4.00;1.05;;;12.20;99.90;;;;;;3119624;28;20025;-72
2024/01/24 04:35:21;;;;;;;12.15;2.78;;;12.30;99.90;;;;;;3102840;28;20061;-71
2024/01/24 04:36:55;;;;;;;11.00;2.78;;;12.20;99.90;;;;;;3099131;28;20068;-71
2024/01/24 04:38:26;;;;;;;5.57;2.78;;;12.30;99.90;;;;;;3119569;28;20350;-72
2024/01/24 04:39:57;;;;;;;4.25;1.77;;;12.30;99.90;;;;;;3104136;28;20038;-72
2024/01/24 04:41:28;;;;;;;9.60;3.97;;;12.40;99.90;;;;;;3111992;28;20243;-71
2024/01/24 04:42:59;;;;;;;12.90;3.00;;;12.40;99.90;;;;;;3116040;28;20034;-71
2024/01/24 04:44:30;;;;;;;3.78;2.83;;;12.30;99.90;;;;;;3115064;28;20081;-71
2024/01/24 04:46:01;;;;;;;9.02;3.08;;;12.40;99.90;;;;;;3111686;28;20038;-71
2024/01/24 04:47:31;;;;;;;10.98;4.47;;;12.40;99.90;;;;;;3111444;28;20038;-70
2024/01/24 04:49:02;;;;;;;7.63;3.28;;;12.40;99.90;;;;;;3114484;28;20057;-72
2024/01/24 04:50:33;;;;;;;6.82;2.80;;;12.40;99.90;;;;;;3103327;28;20117;-70
2024/01/24 04:52:04;;;;;;;9.10;3.53;;;12.40;99.90;;;;;;3103123;28;20089;-71
2024/01/24 04:53:35;;;;;;;4.55;2.95;;;12.40;99.90;;;;;;3098693;28;20034;-71
2024/01/24 04:55:13;;;;;;;5.32;2.45;;;12.30;99.90;;;;;;3112040;28;20491;-71
2024/01/24 04:56:47;;;;;;;11.10;3.75;;;12.30;99.90;;;;;;3113033;28;20093;-70
2024/01/24 04:58:18;;;;;;;7.47;3.38;;;12.30;99.90;;;;;;3098279;28;20045;-73
2024/01/24 04:59:49;;;;;;;10.82;3.17;;;12.30;99.90;;;;;;3111601;28;20053;-71
2024/01/24 05:01:20;;;;;;;18.02;3.78;;;12.30;99.90;;;;;;3115452;28;20173;-71
2024/01/24 05:02:51;;;;;;;9.90;3.88;;;12.30;99.90;;;;;;3090709;28;20719;-71
2024/01/24 05:04:22;;;;;;;8.77;4.15;;;12.30;99.90;;;;;;3107710;28;20207;-71
2024/01/24 05:05:53;;;;;;;4.00;2.30;;;12.30;99.90;;;;;;3115758;28;20017;-72
2024/01/24 05:07:23;;;;;;;8.77;3.53;;;12.20;99.90;;;;;;3115300;28;20038;-71
2024/01/24 05:08:54;;;;;;;6.32;2.97;;;12.30;99.90;;;;;;3126091;28;20025;-70
2024/01/24 05:10:25;;;;;;;8.65;2.60;;;12.20;99.90;;;;;;3115684;28;20036;-73
2024/01/24 05:11:56;;;;;;;9.63;4.13;;;12.30;99.90;;;;;;3118109;28;20021;-71
2024/01/24 05:13:26;;;;;;;9.77;3.83;;;12.30;99.90;;;;;;3105485;28;20339;-71
2024/01/24 05:14:57;;;;;;;6.25;2.70;;;12.30;99.90;;;;;;3121892;28;20092;-72
2024/01/24 05:16:31;;;;;;;12.05;3.47;;;12.30;99.90;;;;;;3097386;28;20037;-74
2024/01/24 05:18:02;;;;;;;10.43;4.43;;;12.20;99.90;;;;;;3100279;28;20029;-72
2024/01/24 05:19:33;;;;;;;6.60;3.38;;;12.20;99.90;;;;;;3114168;28;20034;-72
2024/01/24 05:21:04;;;;;;;13.77;4.88;;;12.10;99.90;;;;;;3105649;28;20030;-70
2024/01/24 05:22:35;;;;;;;9.50;3.63;;;12.10;99.90;;;;;;3118986;28;20038;-72
2024/01/24 05:24:06;;;;;;;4.40;3.13;;;12.10;99.90;;;;;;3105432;28;20049;-69
2024/01/24 05:25:37;;;;;;;8.73;4.38;;;12.00;99.90;;;;;;3117537;28;20041;-70
2024/01/24 05:27:08;;;;;;;7.35;2.85;;;12.10;99.90;;;;;;3113059;28;20033;-71
2024/01/24 05:28:40;;;;;;;12.35;4.45;;;12.10;99.90;;;;;;3107507;28;20084;-72
2024/01/24 05:30:11;;;;;;;16.10;3.38;;;12.10;99.90;;;;;;3110251;28;20023;-73
2024/01/24 05:31:42;;;;;;;11.93;3.65;;;12.10;99.90;;;;;;3096650;28;20096;-73
2024/01/24 05:33:13;;;;;;;17.85;4.30;;;12.10;99.90;;;;;;3105968;28;20018;-73
2024/01/24 05:34:44;;;;;;;20.20;4.10;;;12.10;99.90;;;;;;3107517;28;20184;-73
2024/01/24 05:36:15;;;;;;;14.95;5.07;;;12.00;99.90;;;;;;3122136;28;20216;-72
2024/01/24 05:37:46;;;;;;;11.00;3.25;;;11.90;99.90;;;;;;3106411;28;20033;-72
2024/01/24 05:39:18;;;;;;;20.70;6.07;;;11.90;99.90;;;;;;3112072;28;20025;-72
2024/01/24 05:40:49;;;;;;;12.73;4.90;;;11.90;99.90;;;;;;3116740;28;20036;-73
2024/01/24 05:42:20;;;;;;;11.10;4.97;;;11.90;99.90;;;;;;3101193;28;20034;-72
2024/01/24 05:43:51;;;;;;;13.32;3.67;;;12.00;99.90;;;;;;3087933;28;20022;-72
2024/01/24 05:45:23;;;;;;;7.88;3.25;;;12.10;99.90;;;;;;3108555;28;20243;-75
2024/01/24 05:46:53;;;;;;;20.90;5.55;;;12.10;99.90;;;;;;3112389;28;20034;-74
2024/01/24 05:48:24;;;;;;;13.10;5.00;;;12.10;99.90;;;;;;3120069;28;20056;-73
2024/01/24 05:49:55;;;;;;;12.73;4.38;;;12.10;99.90;;;;;;3114770;28;20033;-74
2024/01/24 05:51:26;;;;;;;18.90;5.68;;;12.10;99.90;;;;;;3112688;28;20036;-75
2024/01/24 05:52:58;;;;;;;12.05;6.18;;;12.10;99.90;;;;;;3101721;28;20128;-76
2024/01/24 05:54:29;;;;;;;26.20;5.40;;;12.10;99.90;;;;;;3099599;28;20066;-74
2024/01/24 05:56:00;;;;;;;12.38;4.03;;;12.10;99.90;;;;;;3106077;28;20038;-75
2024/01/24 05:57:31;;;;;;;18.45;3.88;;;12.10;99.90;;;;;;3111104;28;20022;-73
2024/01/24 05:59:02;;;;;;;12.85;5.43;;;12.10;99.90;;;;;;3105962;28;20102;-73
2024/01/24 06:00:33;;;;;;;14.30;4.45;;;12.10;99.90;;;;;;3100543;28;20291;-74
2024/01/24 06:02:03;;;;;;;22.42;4.75;;;12.10;99.90;;;;;;3097127;28;20216;-73
2024/01/24 06:03:34;;;;;;;23.25;7.93;;;12.00;99.90;;;;;;3096310;28;20044;-73
2024/01/24 06:05:06;;;;;;;28.83;7.75;;;12.10;99.90;;;;;;3120331;28;20306;-72
2024/01/24 06:06:37;;;;;;;26.55;6.97;;;12.10;99.90;;;;;;3113848;28;20033;-76
2024/01/24 06:08:08;;;;;;;17.45;5.82;;;12.10;99.90;;;;;;3100091;28;20046;-72
2024/01/24 06:09:39;;;;;;;20.10;5.20;;;12.10;99.90;;;;;;3118122;28;20033;-72
2024/01/24 06:11:11;;;;;;;21.23;6.20;;;12.10;99.90;;;;;;3117060;28;20038;-72
2024/01/24 06:12:42;;;;;;;12.52;6.15;;;12.00;99.90;;;;;;3117439;28;20053;-73
2024/01/24 06:14:13;;;;;;;21.30;6.30;;;11.90;99.90;;;;;;3105454;28;20025;-73
2024/01/24 06:15:44;;;;;;;22.42;5.55;;;11.90;99.90;;;;;;3105463;28;20098;-73
2024/01/24 06:17:14;;;;;;;23.30;7.00;;;11.90;99.90;;;;;;3124774;28;20032;-74
2024/01/24 06:18:45;;;;;;;20.95;6.20;;;11.90;99.90;;;;;;3114002;28;20018;-73
2024/01/24 06:20:17;;;;;;;25.80;7.13;;;11.90;99.90;;;;;;3105547;28;20231;-73
2024/01/24 06:21:47;;;;;;;11.63;4.90;;;11.90;99.90;;;;;;3120950;28;20025;-74
2024/01/24 06:23:18;;;;;;;10.73;4.93;;;11.80;99.90;;;;;;3115074;28;20097;-73
2024/01/24 06:24:49;;;;;;;14.20;6.28;;;11.80;99.90;;;;;;3117654;28;20327;-72
2024/01/24 06:26:20;;;;;;;20.83;5.38;;;11.80;99.90;;;;;;3109384;28;20019;-72
2024/01/24 06:27:51;;;;;;;23.05;6.25;;;11.90;99.90;;;;;;3113256;28;20045;-72
2024/01/24 06:29:22;;;;;;;19.13;7.25;;;11.90;99.90;;;;;;3107369;28;20045;-72
2024/01/24 06:30:52;;;;;;;18.23;5.68;;;11.90;99.90;;;;;;3109946;28;20239;-72
2024/01/24 06:32:23;;;;;;;10.45;3.72;;;11.90;99.90;;;;;;3113734;28;20049;-73
2024/01/24 06:33:54;;;;;;;12.05;5.25;;;11.50;99.90;;;;;;3113236;28;20010;-75
2024/01/24 06:35:25;;;;;;;21.95;7.50;;;11.80;99.90;;;;;;3117648;28;20092;-74
2024/01/24 06:36:55;;;;;;;17.63;5.03;;;11.90;99.90;;;;;;3117322;28;20025;-73
2024/01/24 06:38:26;;;;;;;29.73;8.93;;;11.80;99.90;;;;;;3116358;28;20085;-74
2024/01/24 06:39:58;;;;;;;20.05;5.55;;;11.80;99.90;;;;;;3117632;28;20041;-74
2024/01/24 06:41:29;;;;;;;18.02;7.45;;;;;;;;;;3117335;28;20021;-74
2024/01/24 06:43:00;;;;;;;13.35;5.82;;;11.90;99.90;;;;;;3129436;28;20053;-72
2024/01/24 06:44:31;;;;;;;20.77;7.55;;;11.90;99.90;;;;;;3105109;28;20022;-73
2024/01/24 06:46:02;;;;;;;16.63;7.95;;;11.80;99.90;;;;;;3109603;28;20033;-72
2024/01/24 06:47:34;;;;;;;14.15;5.22;;;11.90;99.90;;;;;;3117376;28;20085;-72
2024/01/24 06:49:05;;;;;;;33.63;6.93;;;11.90;99.90;;;;;;3103618;28;20053;-72
2024/01/24 06:50:36;;;;;;;23.70;7.55;;;;;;;;;;3109719;28;20033;-72
2024/01/24 06:52:07;;;;;;;20.38;7.03;;;11.90;99.90;;;;;;3114954;28;20041;-73
2024/01/24 06:53:38;;;;;;;21.73;8.32;;;11.90;99.90;;;;;;3108467;28;20259;-73
2024/01/24 06:55:09;;;;;;;17.45;6.10;;;11.90;99.90;;;;;;3098155;28;20030;-73
2024/01/24 06:56:40;;;;;;;18.63;5.70;;;11.90;99.90;;;;;;3112689;28;20081;-73
2024/01/24 06:58:10;;;;;;;15.77;4.97;;;11.80;99.90;;;;;;3112198;28;20029;-72
2024/01/24 06:59:42;;;;;;;27.83;8.05;;;11.70;99.90;;;;;;3104970;28;20390;-73
2024/01/24 07:01:13;;;;;;;17.85;7.43;;;11.70;99.90;;;;;;3113595;28;20288;-72
2024/01/24 07:02:43;;;;;;;24.88;8.20;;;11.70;99.90;;;;;;3101316;28;20018;-71
2024/01/24 07:04:14;;;;;;;22.83;7.22;;;11.70;99.90;;;;;;3105924;28;20034;-71
2024/01/24 07:05:45;;;;;;;19.55;6.38;;;11.70;99.90;;;;;;3093025;28;20057;-72
2024/01/24 07:07:16;;;;;;;32.65;8.88;;;11.70;99.90;;;;;;3088985;28;20086;-71
2024/01/24 07:08:47;;;;;;;33.88;6.57;;;11.70;99.90;;;;;;3100678;28;20092;-71
2024/01/24 07:10:17;;;;;;;27.23;7.13;;;11.70;99.90;;;;;;3093529;28;20035;-72
2024/01/24 07:11:48;;;;;;;18.88;6.13;;;11.90;99.90;;;;;;3105826;28;20113;-71
2024/01/24 07:13:19;;;;;;;25.85;7.32;;;11.70;99.90;;;;;;3118026;28;20021;-73
2024/01/24 07:14:50;;;;;;;32.50;10.02;;;11.80;99.90;;;;;;3117102;28;20350;-74
2024/01/24 07:16:21;;;;;;;31.85;8.55;;;11.90;99.90;;;;;;3113370;28;20029;-72
2024/01/24 07:17:52;;;;;;;24.85;8.07;;;11.80;99.90;;;;;;3117307;28;20022;-72
2024/01/24 07:19:23;;;;;;;26.60;8.05;;;11.80;99.90;;;;;;3105948;28;20212;-72
2024/01/24 07:20:54;;;;;;;18.65;6.45;;;11.70;99.90;;;;;;3092990;28;20359;-73
2024/01/24 07:22:25;;;;;;;18.50;6.85;;;11.70;99.90;;;;;;3109602;28;20057;-72
2024/01/24 07:23:56;;;;;;;19.17;6.93;;;11.70;99.90;;;;;;3129383;28;20041;-71
2024/01/24 07:25:26;;;;;;;18.75;5.55;;;11.70;99.90;;;;;;3122057;28;20018;-72
2024/01/24 07:26:57;;;;;;;23.02;10.18;;;11.60;99.90;;;;;;3129660;28;20037;-72
2024/01/24 07:28:29;;;;;;;14.60;7.50;;;11.60;99.90;;;;;;3116358;28;20030;-72
2024/01/24 07:30:00;;;;;;;22.60;7.00;;;11.60;99.90;;;;;;3105764;28;20022;-72
2024/01/24 07:31:31;;;;;;;17.30;6.90;;;11.60;99.90;;;;;;3106238;28;20312;-73
2024/01/24 07:33:03;;;;;;;15.88;6.18;;;11.60;99.90;;;;;;3104679;28;20031;-72
2024/01/24 07:34:38;;;;;;;25.55;7.32;;;11.60;99.90;;;;;;3113340;28;20069;-73
2024/01/24 07:36:09;;;;;;;25.17;8.30;;;11.70;99.90;;;;;;3105237;28;20037;-73
2024/01/24 07:37:40;;;;;;;23.75;8.70;;;;;;;;;;3113547;28;20100;-73
2024/01/24 07:39:11;;;;;;;14.32;7.40;;;11.60;99.90;;;;;;3112432;28;20029;-72
2024/01/24 07:40:42;;;;;;;16.85;6.35;;;11.50;99.90;;;;;;3113154;28;20029;-73
2024/01/24 07:42:14;;;;;;;25.60;8.88;;;11.70;99.90;;;;;;3112372;28;20076;-72
2024/01/24 07:43:44;;;;;;;28.63;7.68;;;11.50;99.90;;;;;;3100631;28;20053;-73
2024/01/24 07:45:15;;;;;;;22.17;8.35;;;11.60;99.90;;;;;;3108999;28;20034;-72
2024/01/24 07:46:46;;;;;;;19.17;9.00;;;11.60;99.90;;;;;;3112956;28;20040;-73
2024/01/24 07:48:17;;;;;;;20.90;9.55;;;11.60;99.90;;;;;;3111801;28;20053;-73
2024/01/24 07:49:48;;;;;;;21.75;8.38;;;11.50;99.90;;;;;;3104858;28;20050;-73
2024/01/24 07:51:19;;;;;;;24.75;8.95;;;11.50;99.90;;;;;;3113257;28;20037;-73
2024/01/24 07:52:50;;;;;;;21.00;7.80;;;11.50;99.90;;;;;;3104745;28;20295;-72